Time;durP1;ratioP1;P1;durP2;ratioP2;P2;SDS_P1;SDS_P2;PMS_P1;PMS_P2;Temp;Humidity;BMP_temperature;BMP_pressure;BME280_temperature;BME280_humidity;BME280_pressure;Samples;Min_cycle;Max_cycle;Signal;HPM_P1;HPM_P2
2023/08/31 00:01:13;;;;;;;2.25;1.25;;;20.90;54.40;;;;;;5094258;28;20296;-57
2023/08/31 00:03:41;;;;;;;3.47;1.30;;;20.90;54.40;;;;;;5093871;28;20247;-57
2023/08/31 00:06:08;;;;;;;3.22;1.50;;;20.90;54.40;;;;;;5094114;28;20194;-59
2023/08/31 00:08:36;;;;;;;2.40;1.38;;;20.80;54.30;;;;;;5094523;28;20247;-56
2023/08/31 00:11:03;;;;;;;2.60;1.20;;;20.90;54.40;;;;;;5093833;28;20199;-60
2023/08/31 00:13:46;;;;;;;2.95;1.20;;;20.80;55.00;;;;;;5094295;28;20201;-56
2023/08/31 00:18:56;;;;;;;4.90;1.27;;;20.90;54.40;;;;;;5092673;28;20197;-55
2023/08/31 00:21:25;;;;;;;3.78;1.25;;;20.80;54.40;;;;;;5093970;28;20250;-58
2023/08/31 00:23:54;;;;;;;2.33;1.10;;;20.90;55.10;;;;;;5093934;28;20383;-60
2023/08/31 00:26:21;;;;;;;5.55;1.40;;;20.80;54.40;;;;;;5093188;28;20222;-60
2023/08/31 00:28:50;;;;;;;3.00;1.40;;;20.90;54.40;;;;;;5093480;28;20190;-57
2023/08/31 00:31:17;;;;;;;4.10;1.60;;;20.80;54.40;;;;;;5093734;28;20215;-56
2023/08/31 00:33:45;;;;;;;3.45;1.60;;;20.90;54.50;;;;;;5093017;28;20223;-58
2023/08/31 00:36:13;;;;;;;2.45;1.20;;;20.90;54.50;;;;;;5093595;28;20190;-58
2023/08/31 00:38:40;;;;;;;3.63;1.50;;;20.90;54.50;;;;;;5092694;28;20270;-59
2023/08/31 00:41:08;;;;;;;2.47;1.10;;;20.80;54.40;;;;;;5093306;28;20194;-59
2023/08/31 00:43:36;;;;;;;5.68;1.42;;;20.80;54.40;;;;;;5093170;28;20277;-58
2023/08/31 00:46:05;;;;;;;3.15;1.65;;;20.80;54.40;;;;;;5093073;28;20193;-58
2023/08/31 00:48:32;;;;;;;5.32;1.60;;;20.90;54.50;;;;;;5093171;28;20189;-60
2023/08/31 00:51:00;;;;;;;2.72;1.40;;;20.80;54.60;;;;;;5093381;28;20625;-59
2023/08/31 00:53:28;;;;;;;2.03;1.20;;;20.80;54.40;;;;;;5093046;28;20189;-55
2023/08/31 00:55:56;;;;;;;2.72;1.30;;;20.80;54.50;;;;;;5092979;28;20270;-60
2023/08/31 00:58:25;;;;;;;2.85;1.30;;;20.80;54.40;;;;;;5093405;28;20233;-60
2023/08/31 01:01:03;;;;;;;1.90;1.20;;;20.80;54.40;;;;;;5092813;28;20265;-60
2023/08/31 01:03:41;;;;;;;3.45;1.35;;;20.80;54.50;;;;;;5092774;28;20193;-60
2023/08/31 01:06:15;;;;;;;3.55;1.23;;;20.90;54.50;;;;;;5093032;28;20182;-57
2023/08/31 01:08:49;;;;;;;3.45;1.48;;;20.80;54.50;;;;;;5092817;28;20790;-59
2023/08/31 01:11:25;;;;;;;3.50;1.25;;;20.80;54.50;;;;;;5092425;28;20678;-59
2023/08/31 01:13:56;;;;;;;2.50;1.27;;;20.80;54.50;;;;;;5092950;28;20186;-57
2023/08/31 01:16:25;;;;;;;3.20;1.30;;;20.80;54.50;;;;;;5092625;28;20279;-60
2023/08/31 01:21:41;;;;;;;3.25;1.45;;;20.80;54.50;;;;;;5082346;28;20213;-59
2023/08/31 01:24:11;;;;;;;2.20;1.30;;;20.80;54.60;;;;;;5092830;28;20190;-60
2023/08/31 01:26:38;;;;;;;2.95;1.30;;;20.80;54.50;;;;;;5092223;28;20214;-58
2023/08/31 01:29:48;;;;;;;2.03;1.15;;;20.80;54.50;;;;;;5092778;28;20186;-60
2023/08/31 01:32:15;;;;;;;2.30;1.30;;;20.80;54.50;;;;;;5092429;28;20297;-59
2023/08/31 01:34:44;;;;;;;2.28;1.17;;;20.80;54.60;;;;;;5092690;28;20186;-55
2023/08/31 01:37:17;;;;;;;5.85;1.50;;;20.80;54.60;;;;;;5092491;28;20234;-56
2023/08/31 01:39:53;;;;;;;2.53;1.50;;;20.70;54.50;;;;;;5092328;28;20186;-57
2023/08/31 01:42:22;;;;;;;2.75;1.15;;;20.80;54.60;;;;;;5092410;28;20588;-60
2023/08/31 01:44:50;;;;;;;2.78;1.20;;;20.80;54.60;;;;;;5092126;28;20190;-58
2023/08/31 01:47:19;;;;;;;3.80;1.42;;;20.80;54.60;;;;;;5092036;28;20297;-58
2023/08/31 01:49:47;;;;;;;4.13;1.33;;;20.80;54.60;;;;;;5092217;28;20635;-58
2023/08/31 01:52:14;;;;;;;2.92;1.40;;;20.80;54.60;;;;;;5092498;28;20305;-56
2023/08/31 01:54:41;;;;;;;4.82;1.58;;;20.80;54.70;;;;;;5091860;28;20194;-58
2023/08/31 01:57:10;;;;;;;2.20;1.10;;;20.80;54.60;;;;;;5092330;28;20226;-58
2023/08/31 01:59:37;;;;;;;1.95;1.20;;;20.70;54.50;;;;;;5092038;28;20190;-58
2023/08/31 02:02:05;;;;;;;2.55;1.20;;;20.80;54.70;;;;;;5092114;28;20221;-60
2023/08/31 02:04:32;;;;;;;1.60;1.15;;;20.80;54.70;;;;;;5092034;28;20674;-58
2023/08/31 02:07:00;;;;;;;1.90;1.20;;;20.80;54.70;;;;;;5092375;28;20221;-60
2023/08/31 02:09:28;;;;;;;4.20;1.17;;;20.80;54.70;;;;;;5092139;28;20182;-58
2023/08/31 02:11:55;;;;;;;1.88;1.17;;;20.80;54.70;;;;;;5092321;28;20271;-59
2023/08/31 02:14:23;;;;;;;3.58;1.30;;;20.70;54.60;;;;;;5091947;28;20284;-59
2023/08/31 02:16:51;;;;;;;2.33;1.30;;;20.80;54.70;;;;;;5091918;28;20214;-59
2023/08/31 02:19:18;;;;;;;2.95;1.15;;;20.70;54.60;;;;;;5092198;28;20194;-58
2023/08/31 02:21:45;;;;;;;2.45;1.30;;;20.80;54.70;;;;;;5092173;28;20279;-59
2023/08/31 02:24:13;;;;;;;2.17;1.10;;;20.70;54.60;;;;;;5092004;28;20186;-59
2023/08/31 02:26:40;;;;;;;3.40;1.20;;;20.80;54.70;;;;;;5092024;28;20221;-59
2023/08/31 02:29:08;;;;;;;5.72;1.40;;;20.70;54.60;;;;;;5092055;28;20193;-59
2023/08/31 02:31:38;;;;;;;1.45;1.10;;;20.70;54.60;;;;;;5091502;28;20301;-59
2023/08/31 02:34:05;;;;;;;3.65;1.33;;;20.70;54.90;;;;;;5091697;28;20182;-58
2023/08/31 02:36:33;;;;;;;3.05;1.35;;;20.80;54.70;;;;;;5091913;28;20190;-59
2023/08/31 02:39:00;;;;;;;4.38;1.30;;;20.80;54.70;;;;;;5091740;28;20222;-58
2023/08/31 02:41:28;;;;;;;2.35;1.20;;;20.80;54.70;;;;;;5091917;28;20272;-58
2023/08/31 02:43:55;;;;;;;2.47;1.15;;;20.80;54.70;;;;;;5091607;28;20203;-58
2023/08/31 02:46:23;;;;;;;3.97;1.27;;;20.70;54.60;;;;;;5091682;28;20187;-58
2023/08/31 02:48:52;;;;;;;3.40;1.27;;;20.80;54.80;;;;;;5091890;28;20205;-55
2023/08/31 02:51:19;;;;;;;3.03;1.08;;;20.70;54.70;;;;;;5091800;28;20277;-59
2023/08/31 02:53:47;;;;;;;2.80;1.35;;;20.70;54.70;;;;;;5090104;28;20281;-57
2023/08/31 02:56:14;;;;;;;1.60;1.10;;;20.70;54.70;;;;;;5098045;28;20193;-58
2023/08/31 02:58:56;;;;;;;1.20;1.00;;;20.70;54.70;;;;;;5112186;28;20232;-59
2023/08/31 03:04:07;;;;;;;2.75;1.20;;;20.70;54.70;;;;;;5112729;28;20740;-55
2023/08/31 03:06:34;;;;;;;3.67;1.42;;;20.70;54.70;;;;;;5116019;28;20197;-58
2023/08/31 03:09:02;;;;;;;2.45;1.25;;;20.70;54.70;;;;;;5115548;28;20186;-59
2023/08/31 03:11:29;;;;;;;2.45;1.30;;;20.70;54.70;;;;;;5115625;28;20313;-58
2023/08/31 03:13:56;;;;;;;3.10;1.20;;;20.70;54.70;;;;;;5115319;28;20272;-59
2023/08/31 03:16:24;;;;;;;2.47;1.10;;;20.70;54.70;;;;;;5114848;28;20197;-57
2023/08/31 03:18:51;;;;;;;1.80;1.30;;;20.70;54.80;;;;;;5115563;28;20213;-59
2023/08/31 03:21:20;;;;;;;4.05;1.35;;;20.70;54.80;;;;;;5115591;28;20190;-60
2023/08/31 03:23:57;;;;;;;2.63;1.60;;;20.70;54.80;;;;;;5115237;28;20238;-59
2023/08/31 03:26:25;;;;;;;2.38;1.15;;;20.70;54.80;;;;;;5113074;28;20197;-59
2023/08/31 03:28:52;;;;;;;2.42;1.42;;;20.70;54.80;;;;;;5115069;28;20578;-58
2023/08/31 03:31:20;;;;;;;2.67;1.48;;;20.70;54.80;;;;;;5115081;28;20192;-60
2023/08/31 03:33:47;;;;;;;2.45;1.20;;;20.70;54.80;;;;;;5115500;28;20213;-59
2023/08/31 03:36:15;;;;;;;2.53;1.10;;;20.70;54.80;;;;;;5115279;27;20208;-58
2023/08/31 03:38:44;;;;;;;3.33;1.40;;;20.70;54.80;;;;;;5115159;28;20244;-59
2023/08/31 03:41:12;;;;;;;3.63;1.20;;;20.70;54.80;;;;;;5115055;28;20246;-59
2023/08/31 03:43:39;;;;;;;2.67;1.55;;;20.70;54.80;;;;;;5115190;28;20217;-59
2023/08/31 03:46:06;;;;;;;5.68;1.63;;;20.70;54.80;;;;;;5114496;28;20186;-59
2023/08/31 03:48:34;;;;;;;3.67;1.50;;;20.70;55.50;;;;;;5115062;28;20248;-57
2023/08/31 03:51:01;;;;;;;3.03;1.58;;;20.70;54.90;;;;;;5114948;28;20333;-58
2023/08/31 03:53:29;;;;;;;2.10;1.58;;;20.70;54.80;;;;;;5114589;28;20223;-56
2023/08/31 03:55:58;;;;;;;2.78;1.20;;;20.70;54.80;;;;;;5114775;28;20189;-58
2023/08/31 03:58:25;;;;;;;2.60;1.35;;;20.70;54.90;;;;;;5114891;27;20241;-57
2023/08/31 04:00:53;;;;;;;3.53;1.25;;;20.70;54.90;;;;;;5114377;28;20258;-59
2023/08/31 04:03:21;;;;;;;2.40;1.20;;;20.70;54.90;;;;;;5114613;28;20233;-58
2023/08/31 04:05:48;;;;;;;1.92;1.35;;;20.70;54.90;;;;;;5114211;28;20766;-57
2023/08/31 04:08:16;;;;;;;4.15;1.30;;;20.70;54.90;;;;;;5114627;28;20217;-57
2023/08/31 04:10:44;;;;;;;2.13;1.40;;;20.60;54.80;;;;;;5114625;28;20185;-60
2023/08/31 04:13:13;;;;;;;2.58;1.40;;;20.70;55.00;;;;;;5114393;28;20301;-58
2023/08/31 04:15:40;;;;;;;2.35;1.45;;;20.70;55.00;;;;;;5114277;28;20193;-60
2023/08/31 04:18:08;;;;;;;6.72;1.10;;;20.70;55.00;;;;;;5114549;28;20224;-59
2023/08/31 04:20:35;;;;;;;3.28;1.40;;;20.70;55.00;;;;;;5114413;28;20205;-57
2023/08/31 04:23:03;;;;;;;4.05;1.63;;;20.70;55.00;;;;;;5113835;27;20224;-60
2023/08/31 04:25:31;;;;;;;3.00;1.48;;;20.70;55.00;;;;;;5113864;28;20276;-59
2023/08/31 04:27:58;;;;;;;5.45;2.05;;;20.70;55.10;;;;;;5114323;28;20216;-56
2023/08/31 04:30:27;;;;;;;2.53;1.52;;;20.70;55.10;;;;;;5113976;28;20189;-58
2023/08/31 04:32:55;;;;;;;2.58;1.30;;;20.70;55.10;;;;;;5113905;28;20213;-56
2023/08/31 04:35:22;;;;;;;3.63;1.65;;;20.60;55.00;;;;;;5113794;28;20185;-59
2023/08/31 04:37:50;;;;;;;2.70;1.40;;;20.60;55.00;;;;;;5113781;28;20217;-58
2023/08/31 04:40:17;;;;;;;3.75;1.50;;;20.70;55.10;;;;;;5113665;28;20196;-60
2023/08/31 04:42:44;;;;;;;2.75;1.48;;;20.70;55.10;;;;;;5114062;28;20210;-60
2023/08/31 04:45:12;;;;;;;2.53;1.42;;;20.70;55.10;;;;;;5113691;28;20196;-57
2023/08/31 04:47:41;;;;;;;2.03;1.20;;;20.70;55.10;;;;;;5113935;28;20366;-57
2023/08/31 04:50:09;;;;;;;2.65;1.35;;;20.70;55.10;;;;;;5113495;28;20532;-60
2023/08/31 04:52:37;;;;;;;3.15;1.60;;;20.60;55.10;;;;;;5113553;28;20209;-58
2023/08/31 04:55:07;;;;;;;4.38;1.27;;;20.70;55.20;;;;;;5113307;28;20680;-58
2023/08/31 04:57:35;;;;;;;6.20;1.48;;;20.70;55.20;;;;;;5113766;28;20300;-57
2023/08/31 05:00:04;;;;;;;3.22;1.45;;;20.60;55.10;;;;;;5113013;28;20209;-57
2023/08/31 05:02:32;;;;;;;1.95;1.13;;;20.60;55.10;;;;;;5113629;27;20221;-60
2023/08/31 05:05:00;;;;;;;4.97;1.40;;;20.70;55.30;;;;;;5113182;28;20315;-59
2023/08/31 05:07:28;;;;;;;3.83;1.42;;;20.60;55.20;;;;;;5113473;28;20213;-58
2023/08/31 05:09:55;;;;;;;3.30;1.38;;;20.60;55.20;;;;;;5113431;28;20196;-59
2023/08/31 05:12:23;;;;;;;5.03;1.52;;;20.60;55.20;;;;;;5113297;28;20294;-60
2023/08/31 05:14:50;;;;;;;3.67;1.23;;;20.60;55.20;;;;;;5113042;28;20190;-55
2023/08/31 05:17:17;;;;;;;2.65;1.40;;;20.60;55.30;;;;;;5113327;28;20216;-59
2023/08/31 05:19:44;;;;;;;4.03;1.50;;;20.50;55.20;;;;;;5113147;28;20227;-59
2023/08/31 05:22:13;;;;;;;4.82;1.73;;;20.60;55.30;;;;;;5113051;28;20217;-58
2023/08/31 05:24:41;;;;;;;3.42;1.40;;;20.70;56.10;;;;;;5112659;28;20189;-58
2023/08/31 05:27:08;;;;;;;3.53;1.48;;;20.60;55.30;;;;;;5112862;27;20825;-58
2023/08/31 05:29:35;;;;;;;3.05;1.70;;;20.60;55.30;;;;;;5112502;28;20193;-60
2023/08/31 05:32:03;;;;;;;3.33;1.20;;;20.60;55.40;;;;;;5112616;28;20217;-58
2023/08/31 05:34:33;;;;;;;5.85;2.22;;;19.40;59.40;;;;;;5112646;28;20196;-59
2023/08/31 05:37:04;;;;;;;5.35;1.55;;;20.60;55.40;;;;;;5112389;28;20221;-59
2023/08/31 05:39:33;;;;;;;2.95;1.63;;;20.60;55.40;;;;;;5112966;28;20300;-59
2023/08/31 05:42:00;;;;;;;5.10;1.65;;;20.60;55.40;;;;;;5112789;28;20220;-59
2023/08/31 05:44:34;;;;;;;3.80;1.85;;;20.70;55.50;;;;;;5112591;28;20221;-60
2023/08/31 05:47:01;;;;;;;10.88;1.63;;;20.70;55.60;;;;;;5112866;28;20217;-55
2023/08/31 05:49:31;;;;;;;5.20;1.73;;;20.60;55.50;;;;;;5112528;28;20185;-57
2023/08/31 05:51:58;;;;;;;6.65;2.08;;;20.70;55.60;;;;;;5112572;28;20216;-59
2023/08/31 05:54:27;;;;;;;3.28;1.50;;;20.60;55.60;;;;;;5112746;28;20186;-60
2023/08/31 05:56:56;;;;;;;4.63;1.58;;;20.60;55.60;;;;;;5112851;28;20192;-56
2023/08/31 05:59:23;;;;;;;5.15;1.92;;;20.70;55.70;;;;;;5112429;28;20267;-58
2023/08/31 06:02:36;;;;;;;4.00;1.60;;;20.60;56.30;;;;;;5112398;28;20189;-58
2023/08/31 06:05:05;;;;;;;5.03;1.65;;;20.70;55.80;;;;;;5112413;28;20229;-59
2023/08/31 06:07:33;;;;;;;4.82;1.60;;;20.60;55.70;;;;;;5112337;28;20296;-55
2023/08/31 06:10:00;;;;;;;4.93;1.30;;;20.60;55.70;;;;;;5112652;28;20189;-55
2023/08/31 06:12:44;;;;;;;4.18;1.60;;;20.60;55.80;;;;;;5112612;28;20209;-58
2023/08/31 06:15:11;;;;;;;4.65;1.48;;;20.60;55.80;;;;;;5108737;28;20200;-58
2023/08/31 06:17:39;;;;;;;3.33;1.60;;;20.60;55.80;;;;;;5112274;28;20300;-59
2023/08/31 06:20:08;;;;;;;6.32;1.50;;;20.60;55.90;;;;;;5112484;28;20217;-56
2023/08/31 06:22:35;;;;;;;3.42;1.50;;;20.60;56.00;;;;;;5112037;28;20274;-59
2023/08/31 06:25:05;;;;;;;2.80;1.52;;;20.60;56.00;;;;;;5112415;28;20185;-56
2023/08/31 06:27:35;;;;;;;2.83;1.42;;;20.60;56.00;;;;;;5112521;28;20217;-56
2023/08/31 06:30:03;;;;;;;2.22;1.33;;;20.60;56.70;;;;;;5112175;28;20208;-55
2023/08/31 06:32:31;;;;;;;4.78;1.90;;;20.60;56.00;;;;;;5112414;28;20213;-55
2023/08/31 06:34:58;;;;;;;4.03;1.45;;;20.60;56.10;;;;;;5112366;28;20251;-53
2023/08/31 06:37:25;;;;;;;3.97;1.65;;;20.60;56.10;;;;;;5114571;28;20220;-56
2023/08/31 06:39:53;;;;;;;3.88;1.55;;;20.60;56.10;;;;;;5116301;28;20217;-57
2023/08/31 06:42:20;;;;;;;7.53;1.67;;;20.60;56.10;;;;;;5116379;28;20231;-58
2023/08/31 06:44:49;;;;;;;2.97;1.60;;;20.70;56.20;;;;;;5116001;28;20189;-58
2023/08/31 06:47:17;;;;;;;3.20;1.65;;;20.60;56.10;;;;;;5115868;28;20225;-57
2023/08/31 06:49:44;;;;;;;4.75;1.70;;;20.60;56.10;;;;;;5116227;28;20653;-56
2023/08/31 06:52:12;;;;;;;4.90;1.65;;;20.60;56.10;;;;;;5115954;28;20224;-58
2023/08/31 06:54:39;;;;;;;5.80;1.50;;;20.60;56.20;;;;;;5116057;28;20181;-58
2023/08/31 06:57:07;;;;;;;3.92;1.52;;;20.60;56.20;;;;;;5114494;28;20201;-57
2023/08/31 06:59:34;;;;;;;4.93;1.75;;;20.60;56.80;;;;;;5109968;28;20213;-58
2023/08/31 07:02:03;;;;;;;4.28;1.60;;;20.60;56.10;;;;;;5099646;28;20269;-59
2023/08/31 07:04:30;;;;;;;4.22;1.40;;;20.60;56.10;;;;;;5101297;28;20224;-56
2023/08/31 07:06:57;;;;;;;4.53;2.05;;;20.60;56.10;;;;;;5100460;28;20212;-58
2023/08/31 07:09:26;;;;;;;3.47;1.63;;;20.60;56.10;;;;;;5102154;28;20206;-59
2023/08/31 07:11:55;;;;;;;3.58;1.90;;;20.60;56.10;;;;;;5095037;28;20186;-60
2023/08/31 07:14:22;;;;;;;4.00;1.70;;;20.60;56.10;;;;;;5093337;28;20617;-58
2023/08/31 07:16:50;;;;;;;2.67;1.60;;;20.70;56.20;;;;;;5088760;28;20696;-58
2023/08/31 07:19:18;;;;;;;4.05;1.90;;;20.70;56.20;;;;;;5089682;28;20603;-57
2023/08/31 07:21:46;;;;;;;5.93;1.83;;;20.70;56.40;;;;;;5098386;28;20185;-60
2023/08/31 07:24:14;;;;;;;4.15;1.92;;;20.70;56.40;;;;;;5097311;28;20287;-59
2023/08/31 07:26:41;;;;;;;5.93;1.80;;;20.80;56.60;;;;;;5091183;28;20642;-57
2023/08/31 07:29:09;;;;;;;3.70;1.73;;;20.80;56.70;;;;;;5110567;28;20274;-55
2023/08/31 07:31:36;;;;;;;5.45;2.03;;;20.80;56.70;;;;;;5109173;28;20691;-56
2023/08/31 07:34:04;;;;;;;6.10;2.20;;;20.80;56.70;;;;;;5085655;28;20217;-57
2023/08/31 07:36:33;;;;;;;3.65;1.70;;;20.90;56.80;;;;;;5083003;28;20255;-55
2023/08/31 07:39:00;;;;;;;6.50;2.13;;;20.90;56.80;;;;;;5083102;28;20248;-55
2023/08/31 07:41:28;;;;;;;3.90;1.55;;;21.00;56.90;;;;;;5092776;28;20285;-54
2023/08/31 07:43:55;;;;;;;4.65;1.70;;;21.00;57.50;;;;;;5081786;28;20222;-58
2023/08/31 07:46:23;;;;;;;3.95;1.60;;;21.00;57.00;;;;;;5085836;28;20217;-58
2023/08/31 07:48:50;;;;;;;4.88;1.73;;;21.00;57.00;;;;;;5092946;28;20218;-59
2023/08/31 07:51:22;;;;;;;5.88;1.77;;;21.00;57.00;;;;;;5092363;28;20198;-56
2023/08/31 07:53:51;;;;;;;7.35;1.90;;;21.10;57.00;;;;;;5080274;28;20214;-58
2023/08/31 07:56:19;;;;;;;5.03;1.65;;;21.20;57.10;;;;;;5091941;28;20186;-57
2023/08/31 07:58:46;;;;;;;6.03;1.70;;;21.20;57.00;;;;;;5091908;28;20210;-57
2023/08/31 08:01:14;;;;;;;9.38;1.70;;;21.20;57.10;;;;;;5108161;28;20195;-57
2023/08/31 08:03:41;;;;;;;3.15;1.48;;;21.20;57.10;;;;;;5113350;28;20221;-59
2023/08/31 08:06:08;;;;;;;4.32;1.75;;;21.20;57.10;;;;;;5113384;28;20189;-57
2023/08/31 08:08:35;;;;;;;2.28;1.50;;;21.20;57.30;;;;;;5113370;28;20221;-58
2023/08/31 08:11:06;;;;;;;6.25;1.33;;;21.30;57.40;;;;;;5100543;28;20198;-56
2023/08/31 08:13:34;;;;;;;4.60;1.70;;;21.30;57.40;;;;;;5092370;28;20562;-56
2023/08/31 08:16:01;;;;;;;4.45;1.70;;;21.30;57.40;;;;;;5092674;28;20251;-57
2023/08/31 08:18:28;;;;;;;2.85;1.70;;;21.30;57.40;;;;;;5093001;28;20254;-55
2023/08/31 08:20:56;;;;;;;6.45;1.95;;;21.30;57.40;;;;;;5092526;28;20304;-56
2023/08/31 08:23:23;;;;;;;3.53;1.52;;;21.30;58.00;;;;;;5095488;28;20218;-54
2023/08/31 08:25:50;;;;;;;2.47;1.55;;;21.40;57.50;;;;;;5111647;28;20208;-58
2023/08/31 08:28:19;;;;;;;3.75;1.58;;;21.40;57.50;;;;;;5110574;28;20229;-58
2023/08/31 08:30:47;;;;;;;4.47;1.75;;;21.40;57.70;;;;;;5110886;28;20193;-54
2023/08/31 08:33:14;;;;;;;4.35;1.70;;;21.40;57.60;;;;;;5107835;28;20301;-59
2023/08/31 08:35:42;;;;;;;2.38;1.30;;;21.40;57.60;;;;;;5110691;27;20225;-60
2023/08/31 08:38:09;;;;;;;3.55;1.60;;;21.40;57.60;;;;;;5111672;28;20304;-58
2023/08/31 08:40:37;;;;;;;3.65;1.70;;;21.30;57.50;;;;;;5109579;28;20303;-59
2023/08/31 08:43:07;;;;;;;2.88;1.48;;;21.50;57.70;;;;;;5110941;28;20244;-56
2023/08/31 08:45:41;;;;;;;2.95;1.40;;;21.40;57.60;;;;;;5101081;28;20199;-57
2023/08/31 08:48:09;;;;;;;3.15;1.27;;;21.40;57.60;;;;;;5112461;28;20252;-56
2023/08/31 08:50:38;;;;;;;2.85;1.45;;;21.40;57.60;;;;;;5098042;28;20323;-58
2023/08/31 08:53:06;;;;;;;2.42;1.20;;;21.40;57.70;;;;;;5108157;28;20286;-59
2023/08/31 08:55:34;;;;;;;2.95;1.65;;;21.40;57.70;;;;;;5109231;28;20189;-58
2023/08/31 09:01:07;;;;;;;1.73;1.20;;;21.50;57.80;;;;;;5067312;28;20337;-55
2023/08/31 09:03:34;;;;;;;2.30;1.73;;;21.50;57.90;;;;;;5071519;28;20230;-56
2023/08/31 09:06:03;;;;;;;2.67;1.38;;;21.40;57.70;;;;;;5110732;28;20665;-55
2023/08/31 09:08:30;;;;;;;2.72;1.10;;;21.50;57.90;;;;;;5109325;28;20255;-58
2023/08/31 09:10:58;;;;;;;2.10;1.45;;;21.40;57.80;;;;;;5111989;28;20193;-57
2023/08/31 09:13:28;;;;;;;4.53;1.40;;;21.40;57.90;;;;;;5104823;28;20216;-55
2023/08/31 09:15:57;;;;;;;2.10;1.13;;;21.50;58.00;;;;;;5108657;28;20564;-58
2023/08/31 09:18:28;;;;;;;4.05;1.20;;;21.40;57.90;;;;;;5091484;28;20218;-54
2023/08/31 09:20:57;;;;;;;3.90;1.30;;;21.50;58.00;;;;;;5091214;28;20316;-57
2023/08/31 09:23:25;;;;;;;3.15;1.48;;;21.50;58.00;;;;;;5091793;28;20224;-56
2023/08/31 09:25:54;;;;;;;4.85;1.30;;;21.50;58.00;;;;;;5098126;28;20212;-54
2023/08/31 09:28:23;;;;;;;4.18;1.13;;;21.50;58.00;;;;;;5111593;28;20295;-57
2023/08/31 09:30:52;;;;;;;2.40;1.00;;;21.50;58.10;;;;;;5109072;28;20208;-55
2023/08/31 09:33:21;;;;;;;3.75;1.33;;;21.60;58.20;;;;;;5109162;28;20229;-56
2023/08/31 09:35:51;;;;;;;2.67;1.20;;;21.60;58.20;;;;;;5102565;28;20189;-55
2023/08/31 09:38:19;;;;;;;2.42;1.25;;;21.60;58.20;;;;;;5105226;28;20683;-56
2023/08/31 09:40:47;;;;;;;2.65;1.40;;;21.60;58.20;;;;;;5111453;28;20221;-57
2023/08/31 09:43:21;;;;;;;1.90;0.90;;;21.50;58.70;;;;;;5111878;28;20642;-55
2023/08/31 09:45:49;;;;;;;2.67;1.30;;;21.50;58.20;;;;;;5089964;28;20190;-55
2023/08/31 09:48:17;;;;;;;1.52;1.00;;;21.60;58.30;;;;;;5107806;28;20196;-56
2023/08/31 09:50:45;;;;;;;1.58;1.08;;;21.60;58.20;;;;;;5111153;28;20612;-57
2023/08/31 09:53:21;;;;;;;2.20;1.15;;;21.60;58.20;;;;;;5111152;28;20233;-56
2023/08/31 09:55:49;;;;;;;1.00;0.90;;;21.60;58.20;;;;;;5099153;28;20197;-57
2023/08/31 10:01:18;;;;;;;1.33;1.10;;;21.70;58.30;;;;;;5049200;28;20271;-57
2023/08/31 10:03:46;;;;;;;1.38;1.10;;;21.60;58.30;;;;;;5091361;28;20300;-57
2023/08/31 10:06:13;;;;;;;1.88;1.02;;;21.70;58.40;;;;;;5102608;28;20178;-52
2023/08/31 10:08:43;;;;;;;1.63;1.00;;;21.70;58.30;;;;;;5089864;28;20217;-55
2023/08/31 10:11:14;;;;;;;3.00;1.23;;;21.70;58.30;;;;;;5092725;28;20262;-56
2023/08/31 10:13:43;;;;;;;2.95;1.27;;;21.80;58.40;;;;;;5094129;28;20594;-54
2023/08/31 10:16:12;;;;;;;1.95;1.10;;;21.80;58.40;;;;;;5092393;28;20209;-54
2023/08/31 10:18:40;;;;;;;2.45;0.98;;;21.70;58.30;;;;;;5110024;28;20197;-57
2023/08/31 10:21:07;;;;;;;1.10;0.85;;;21.70;58.30;;;;;;5099692;28;20225;-56
2023/08/31 10:23:35;;;;;;;1.85;1.23;;;21.70;58.30;;;;;;5093468;28;20251;-54
2023/08/31 10:26:07;;;;;;;4.97;1.20;;;21.70;58.40;;;;;;5094701;28;20186;-56
2023/08/31 10:28:42;;;;;;;1.88;1.05;;;21.60;58.30;;;;;;5103316;28;20205;-57
2023/08/31 10:31:11;;;;;;;2.20;1.17;;;21.70;58.60;;;;;;5092888;28;20197;-57
2023/08/31 10:33:42;;;;;;;2.35;1.10;;;21.70;58.50;;;;;;5093374;28;20190;-59
2023/08/31 10:36:15;;;;;;;1.70;0.80;;;21.60;58.40;;;;;;5093599;28;20193;-54
2023/08/31 10:38:45;;;;;;;1.58;0.88;;;21.60;58.40;;;;;;5103705;28;20225;-56
2023/08/31 10:41:24;;;;;;;1.20;0.80;;;21.70;58.50;;;;;;5110427;28;20209;-56
2023/08/31 10:43:53;;;;;;;1.55;1.00;;;21.60;59.10;;;;;;5105346;28;20229;-55
2023/08/31 10:46:28;;;;;;;1.20;0.93;;;21.60;58.50;;;;;;5096790;28;20276;-56
2023/08/31 10:48:58;;;;;;;2.00;1.10;;;21.70;58.70;;;;;;5111560;28;20228;-55
2023/08/31 10:51:27;;;;;;;1.30;0.90;;;21.60;58.70;;;;;;5104900;28;20193;-50
2023/08/31 10:54:09;;;;;;;3.55;0.85;;;21.60;58.70;;;;;;5113787;28;20233;-57
2023/08/31 10:57:03;;;;;;;2.08;1.02;;;21.70;58.90;;;;;;5104510;28;20216;-57
2023/08/31 10:59:47;;;;;;;2.30;1.25;;;21.70;59.00;;;;;;5107680;27;20221;-55
2023/08/31 11:02:36;;;;;;;1.15;1.00;;;21.60;58.90;;;;;;5101619;28;20284;-53
2023/08/31 11:05:22;;;;;;;1.30;1.00;;;21.60;59.00;;;;;;5105112;28;20322;-53
2023/08/31 11:10:40;;;;;;;2.97;1.00;;;21.50;59.00;;;;;;5066165;28;20244;-54
2023/08/31 11:13:17;;;;;;;4.18;0.80;;;21.60;59.10;;;;;;5094644;28;20202;-56
2023/08/31 11:15:47;;;;;;;1.52;0.90;;;21.70;59.30;;;;;;5096396;28;20312;-54
2023/08/31 11:18:17;;;;;;;1.98;0.80;;;21.60;59.20;;;;;;5105320;28;20361;-55
2023/08/31 11:20:45;;;;;;;1.67;1.02;;;21.60;59.30;;;;;;5093497;28;20322;-54
2023/08/31 11:23:12;;;;;;;2.60;1.00;;;21.60;59.30;;;;;;5092779;28;20202;-55
2023/08/31 11:25:40;;;;;;;1.50;1.00;;;21.60;59.40;;;;;;5108807;28;20249;-54
2023/08/31 11:28:09;;;;;;;1.20;0.90;;;21.60;59.50;;;;;;5096274;28;20198;-56
2023/08/31 11:33:48;;;;;;;1.23;0.88;;;21.60;59.40;;;;;;5049119;27;20798;-58
2023/08/31 11:36:17;;;;;;;0.93;0.77;;;21.70;59.60;;;;;;5093239;28;20225;-56
2023/08/31 11:38:44;;;;;;;1.15;0.82;;;21.60;59.50;;;;;;5095145;28;20197;-55
2023/08/31 11:41:25;;;;;;;1.60;0.90;;;21.60;59.60;;;;;;5113262;27;20781;-55
2023/08/31 11:43:54;;;;;;;1.13;0.90;;;21.60;59.60;;;;;;5103037;28;20216;-57
2023/08/31 11:50:01;;;;;;;1.40;0.80;;;21.60;59.70;;;;;;5092714;28;20712;-54
2023/08/31 11:52:29;;;;;;;1.10;0.90;;;21.60;59.80;;;;;;5107574;28;20227;-56
2023/08/31 11:54:56;;;;;;;2.25;0.70;;;21.60;59.90;;;;;;5090956;28;20214;-54
2023/08/31 11:57:28;;;;;;;45.30;2.65;;;21.60;60.70;;;;;;5107711;28;20193;-55
2023/08/31 12:00:10;;;;;;;2.10;1.13;;;21.60;60.20;;;;;;5091917;28;20221;-55
2023/08/31 12:02:38;;;;;;;1.00;0.90;;;21.60;60.20;;;;;;5100234;28;20225;-55
2023/08/31 12:05:06;;;;;;;4.30;0.77;;;21.70;60.40;;;;;;5104955;28;20297;-56
2023/08/31 12:07:40;;;;;;;7.28;1.00;;;21.70;60.50;;;;;;5082974;28;20205;-56
2023/08/31 12:10:12;;;;;;;1.80;1.02;;;21.80;60.70;;;;;;5090535;27;20583;-56
2023/08/31 12:12:39;;;;;;;2.00;0.80;;;21.70;60.90;;;;;;5092379;27;20302;-53
2023/08/31 12:15:09;;;;;;;1.13;0.90;;;21.80;61.60;;;;;;5103685;27;20221;-58
2023/08/31 12:17:40;;;;;;;1.27;0.60;;;21.80;62.10;;;;;;5090920;27;20197;-54
2023/08/31 12:20:09;;;;;;;7.65;1.35;;;21.90;61.90;;;;;;5103819;27;20232;-55
2023/08/31 12:22:37;;;;;;;7.63;1.20;;;22.00;62.10;;;;;;5102477;27;20200;-56
2023/08/31 12:25:05;;;;;;;14.13;1.10;;;22.00;62.20;;;;;;5104742;27;20224;-56
2023/08/31 12:27:32;;;;;;;7.75;0.95;;;22.00;62.10;;;;;;5100716;28;20250;-55
2023/08/31 12:29:59;;;;;;;7.65;1.10;;;22.10;61.90;;;;;;5101520;27;20249;-56
2023/08/31 12:32:27;;;;;;;6.53;1.15;;;22.20;62.10;;;;;;5104235;27;20196;-55
2023/08/31 12:34:54;;;;;;;4.20;1.10;;;22.20;62.20;;;;;;5102360;27;20759;-58
2023/08/31 12:37:21;;;;;;;1.95;1.20;;;22.20;62.00;;;;;;5091143;28;20194;-57
2023/08/31 12:39:49;;;;;;;47.05;34.17;;;22.30;62.30;;;;;;5094850;27;20676;-58
2023/08/31 12:42:16;;;;;;;16.27;13.60;;;22.40;62.40;;;;;;5093012;27;20214;-63
2023/08/31 12:44:43;;;;;;;6.93;5.00;;;22.40;62.40;;;;;;5093995;27;20304;-60
2023/08/31 12:47:10;;;;;;;12.20;4.78;;;22.40;62.40;;;;;;5093903;27;20984;-57
2023/08/31 12:49:39;;;;;;;6.22;3.22;;;22.50;62.10;;;;;;5096890;28;20226;-56
2023/08/31 12:52:06;;;;;;;3.25;2.75;;;22.50;62.10;;;;;;5095986;27;20272;-57
2023/08/31 12:54:36;;;;;;;23.23;19.00;;;22.50;62.80;;;;;;5098202;27;20202;-56
2023/08/31 12:57:05;;;;;;;11.23;8.63;;;22.60;62.30;;;;;;5092733;28;20692;-58
2023/08/31 12:59:32;;;;;;;11.70;6.90;;;22.60;62.20;;;;;;5091304;27;20198;-55
2023/08/31 13:01:59;;;;;;;6.88;5.43;;;22.60;62.30;;;;;;5087841;27;20247;-57
2023/08/31 13:04:26;;;;;;;8.95;4.40;;;22.70;62.30;;;;;;5097531;28;20820;-54
2023/08/31 13:06:55;;;;;;;7.95;3.90;;;22.70;62.10;;;;;;5092564;27;20225;-56
2023/08/31 13:09:23;;;;;;;5.45;2.90;;;22.60;62.00;;;;;;5095348;28;20225;-53
2023/08/31 13:11:51;;;;;;;4.30;2.55;;;22.70;62.10;;;;;;5094976;28;20216;-55
2023/08/31 13:14:18;;;;;;;7.65;2.38;;;22.60;62.20;;;;;;5099460;27;20197;-55
2023/08/31 13:16:45;;;;;;;4.55;2.00;;;22.60;62.20;;;;;;5090376;27;20251;-53
2023/08/31 13:19:12;;;;;;;5.22;2.17;;;22.60;62.20;;;;;;5095908;27;20202;-54